Time;durP1;ratioP1;P1;durP2;ratioP2;P2;SDS_P1;SDS_P2;PMS_P1;PMS_P2;Temp;Humidity;BMP_temperature;BMP_pressure;BME280_temperature;BME280_humidity;BME280_pressure;Samples;Min_cycle;Max_cycle;Signal;HPM_P1;HPM_P2
2022/03/18 00:02:04;;;;;;;18.23;14.10;;;4.40;63.40;;;;;;6281692;28;20261;-61
2022/03/18 00:05:06;;;;;;;19.13;14.77;;;4.30;63.50;;;;;;6291804;28;20197;-61
2022/03/18 00:08:07;;;;;;;22.97;16.53;;;4.30;63.30;;;;;;6274910;28;20193;-61
2022/03/18 00:11:08;;;;;;;30.20;18.67;;;4.20;63.20;;;;;;6275142;28;20197;-61
2022/03/18 00:14:09;;;;;;;32.67;17.33;;;4.20;63.10;;;;;;6257815;28;20289;-61
2022/03/18 00:17:11;;;;;;;43.63;24.37;;;4.00;63.40;;;;;;6275239;28;20204;-61
2022/03/18 00:20:25;;;;;;;46.93;24.73;;;4.00;64.00;;;;;;6282645;28;20196;-59
2022/03/18 00:23:27;;;;;;;37.63;21.83;;;3.90;64.20;;;;;;6294014;28;20221;-59
2022/03/18 00:26:28;;;;;;;34.73;20.50;;;3.80;64.60;;;;;;6283524;28;20314;-60
2022/03/18 00:29:30;;;;;;;29.00;18.23;;;3.80;64.90;;;;;;6270044;28;20243;-60
2022/03/18 00:32:32;;;;;;;23.97;16.20;;;3.70;64.90;;;;;;6251558;28;20197;-59
2022/03/18 00:35:34;;;;;;;31.50;20.03;;;3.70;65.30;;;;;;6274047;28;20206;-61
2022/03/18 00:38:34;;;;;;;29.40;17.20;;;3.70;65.50;;;;;;6257288;28;20204;-60
2022/03/18 00:41:35;;;;;;;24.47;16.40;;;3.70;65.50;;;;;;6295031;28;20219;-60
2022/03/18 00:44:36;;;;;;;22.20;15.07;;;3.70;65.40;;;;;;6290175;28;20188;-59
2022/03/18 00:54:15;;;;;;;21.63;14.80;;;3.60;65.80;;;;;;6233824;28;20190;-60
2022/03/18 00:57:16;;;;;;;20.30;14.23;;;3.60;65.80;;;;;;6260150;28;20192;-60
2022/03/18 01:00:16;;;;;;;20.07;14.43;;;3.60;65.90;;;;;;6282055;28;20189;-60
2022/03/18 01:03:18;;;;;;;24.30;15.40;;;3.60;66.20;;;;;;6297017;28;20216;-60
2022/03/18 01:06:18;;;;;;;22.97;15.10;;;3.60;66.40;;;;;;6298229;28;20196;-60
2022/03/18 01:09:21;;;;;;;19.80;13.93;;;3.60;66.50;;;;;;6264313;28;20220;-60
2022/03/18 01:12:22;;;;;;;20.63;14.83;;;3.50;66.50;;;;;;6256890;28;20194;-58
2022/03/18 01:15:23;;;;;;;19.33;14.00;;;3.50;66.50;;;;;;6256879;28;20243;-58
2022/03/18 01:18:24;;;;;;;24.10;14.40;;;3.50;66.60;;;;;;6246778;28;20279;-58
2022/03/18 01:21:24;;;;;;;21.43;14.70;;;3.40;66.70;;;;;;6273317;28;20220;-58
2022/03/18 01:24:25;;;;;;;19.17;13.87;;;3.40;66.90;;;;;;6286108;28;20188;-58
2022/03/18 01:27:26;;;;;;;18.70;14.33;;;3.30;67.00;;;;;;6275931;28;20250;-59
2022/03/18 01:30:28;;;;;;;20.13;13.47;;;3.30;67.20;;;;;;6265465;28;20272;-59
2022/03/18 01:33:29;;;;;;;23.60;15.27;;;3.30;67.50;;;;;;6259996;28;20201;-59
2022/03/18 01:36:30;;;;;;;20.27;14.27;;;3.20;67.90;;;;;;6256107;28;20243;-58
2022/03/18 01:39:31;;;;;;;21.27;13.70;;;3.10;68.10;;;;;;6275747;28;20196;-60
2022/03/18 01:42:32;;;;;;;20.17;15.00;;;3.10;68.00;;;;;;6273578;28;20198;-60
2022/03/18 01:45:33;;;;;;;21.00;14.37;;;3.10;68.10;;;;;;6272843;28;20181;-60
2022/03/18 01:48:35;;;;;;;22.70;15.53;;;3.10;68.00;;;;;;6292946;28;20201;-60
2022/03/18 01:51:35;;;;;;;22.03;13.73;;;3.00;68.30;;;;;;6297631;28;20189;-60
2022/03/18 01:54:47;;;;;;;20.97;15.00;;;2.90;68.30;;;;;;6281246;28;20204;-60
2022/03/18 01:57:48;;;;;;;19.83;14.13;;;2.80;68.50;;;;;;6297392;28;20196;-59
2022/03/18 02:00:49;;;;;;;21.73;15.30;;;2.80;68.60;;;;;;6260797;28;20251;-59
2022/03/18 02:03:50;;;;;;;20.37;15.20;;;2.80;68.80;;;;;;6290995;28;20194;-59
2022/03/18 02:06:52;;;;;;;18.67;14.10;;;2.80;69.00;;;;;;6297410;28;20188;-60
2022/03/18 02:09:53;;;;;;;19.67;14.50;;;2.80;69.00;;;;;;6297647;28;20261;-59
2022/03/18 02:12:54;;;;;;;19.97;14.67;;;2.70;69.60;;;;;;6290830;28;20246;-60
2022/03/18 02:15:54;;;;;;;20.23;14.03;;;2.70;69.60;;;;;;6280704;28;20205;-60
2022/03/18 02:18:55;;;;;;;19.30;14.60;;;2.70;69.70;;;;;;6266112;28;20288;-59
2022/03/18 02:21:57;;;;;;;21.03;15.20;;;2.60;69.60;;;;;;6280581;28;20314;-59
2022/03/18 02:24:58;;;;;;;23.17;15.73;;;2.60;69.80;;;;;;6278536;28;20196;-59
2022/03/18 02:28:01;;;;;;;20.43;14.97;;;2.70;69.80;;;;;;6294309;28;20227;-60
2022/03/18 02:31:02;;;;;;;19.03;13.93;;;2.60;70.20;;;;;;6314421;28;20181;-60
2022/03/18 02:34:03;;;;;;;19.20;13.53;;;2.60;69.90;;;;;;6297200;28;20253;-60
2022/03/18 02:37:05;;;;;;;20.80;14.47;;;2.50;69.90;;;;;;6297590;28;20197;-60
2022/03/18 02:40:06;;;;;;;18.67;13.87;;;2.40;70.20;;;;;;6297034;28;20185;-59
2022/03/18 02:43:07;;;;;;;23.20;14.47;;;2.30;70.60;;;;;;6282452;28;20223;-59
2022/03/18 02:46:08;;;;;;;19.97;14.90;;;2.30;70.80;;;;;;6260090;28;20190;-59
2022/03/18 02:49:09;;;;;;;20.37;15.00;;;2.30;71.00;;;;;;6280765;28;20207;-59
2022/03/18 02:52:10;;;;;;;21.00;14.73;;;2.30;71.20;;;;;;6301845;28;20192;-59
2022/03/18 02:55:10;;;;;;;20.10;13.80;;;2.30;71.20;;;;;;6301373;28;20227;-59
2022/03/18 02:58:11;;;;;;;20.03;14.47;;;2.10;71.40;;;;;;6300951;28;20241;-59
2022/03/18 03:01:12;;;;;;;19.80;14.47;;;2.10;71.50;;;;;;6283786;28;20219;-60
2022/03/18 03:04:14;;;;;;;21.30;14.77;;;2.10;71.50;;;;;;6271173;28;20191;-60
2022/03/18 03:10:36;;;;;;;22.20;15.00;;;2.00;71.50;;;;;;6317836;28;20190;-60
2022/03/18 03:13:37;;;;;;;21.67;14.93;;;1.90;72.20;;;;;;6317719;28;20193;-60
2022/03/18 03:16:38;;;;;;;22.80;14.67;;;1.80;72.90;;;;;;6315504;28;20196;-60
2022/03/18 03:19:39;;;;;;;19.60;15.53;;;1.80;73.20;;;;;;6309286;28;20188;-60
2022/03/18 03:22:40;;;;;;;20.33;14.30;;;1.70;73.80;;;;;;6291937;28;20290;-60
2022/03/18 03:25:40;;;;;;;22.57;14.60;;;1.80;73.30;;;;;;6278010;28;20237;-57
2022/03/18 03:28:42;;;;;;;22.17;14.10;;;1.70;73.10;;;;;;6292648;28;20201;-57
2022/03/18 03:31:42;;;;;;;21.83;14.60;;;1.70;73.10;;;;;;6285141;28;20266;-57
2022/03/18 03:34:44;;;;;;;21.27;14.27;;;1.60;73.00;;;;;;6281204;28;20196;-57
2022/03/18 03:37:46;;;;;;;18.87;13.83;;;1.50;73.40;;;;;;6296672;28;20231;-57
2022/03/18 03:40:48;;;;;;;18.30;13.50;;;1.50;73.70;;;;;;6296834;28;20216;-57
2022/03/18 03:43:49;;;;;;;22.63;14.23;;;1.50;73.60;;;;;;6283281;28;20200;-58
2022/03/18 03:46:50;;;;;;;20.53;15.17;;;1.60;73.50;;;;;;6316126;28;20544;-57
2022/03/18 03:49:51;;;;;;;20.23;14.83;;;1.50;73.20;;;;;;6300161;28;20222;-58
2022/03/18 03:52:52;;;;;;;22.53;15.13;;;1.50;73.30;;;;;;6293628;28;20196;-58
2022/03/18 03:55:54;;;;;;;21.67;14.67;;;1.40;73.60;;;;;;6283205;28;20195;-59
2022/03/18 03:58:54;;;;;;;17.83;14.60;;;1.50;73.50;;;;;;6269325;28;20213;-59
2022/03/18 04:01:57;;;;;;;19.73;12.97;;;1.40;73.70;;;;;;6299558;28;20217;-59
2022/03/18 04:04:58;;;;;;;17.87;14.23;;;1.30;73.80;;;;;;6279581;28;20194;-59
2022/03/18 04:07:59;;;;;;;20.40;14.63;;;1.30;73.90;;;;;;6275139;28;20256;-58
2022/03/18 04:11:00;;;;;;;20.00;13.40;;;1.30;74.00;;;;;;6296322;28;20199;-59
2022/03/18 04:14:01;;;;;;;20.37;14.13;;;1.30;73.90;;;;;;6298171;28;20196;-58
2022/03/18 04:17:02;;;;;;;20.13;13.50;;;1.30;74.00;;;;;;6297145;28;20274;-58
2022/03/18 04:20:05;;;;;;;16.97;13.10;;;1.20;74.20;;;;;;6288763;28;20200;-58
2022/03/18 04:23:05;;;;;;;21.13;15.00;;;1.30;74.20;;;;;;6284881;28;20240;-58
2022/03/18 04:26:06;;;;;;;22.97;15.30;;;1.20;74.40;;;;;;6289785;28;20243;-58
2022/03/18 04:29:12;;;;;;;20.27;13.77;;;1.20;74.40;;;;;;6282719;28;20190;-59
2022/03/18 04:32:13;;;;;;;23.77;14.67;;;1.20;74.60;;;;;;6285684;28;20231;-58
2022/03/18 04:35:14;;;;;;;22.20;15.80;;;1.10;74.80;;;;;;6295153;28;20220;-59
2022/03/18 04:38:15;;;;;;;20.77;13.50;;;1.00;75.50;;;;;;6306667;28;20204;-58
2022/03/18 04:41:16;;;;;;;20.07;13.83;;;1.00;75.50;;;;;;6289835;28;20216;-57
2022/03/18 04:44:16;;;;;;;20.70;14.63;;;1.00;75.40;;;;;;6298429;28;20197;-58
2022/03/18 04:47:17;;;;;;;20.50;14.13;;;1.00;75.50;;;;;;6296644;28;20276;-57
2022/03/18 04:50:18;;;;;;;20.60;14.87;;;1.10;75.60;;;;;;6312889;28;20181;-61
2022/03/18 04:53:19;;;;;;;19.23;13.80;;;1.10;75.40;;;;;;6303083;28;20197;-61
2022/03/18 04:59:40;;;;;;;19.07;13.67;;;1.10;75.30;;;;;;6322375;28;20265;-61
2022/03/18 05:02:41;;;;;;;22.83;15.53;;;1.00;75.30;;;;;;6298429;28;20217;-62
2022/03/18 05:05:42;;;;;;;20.27;14.30;;;1.00;75.40;;;;;;6317040;28;20191;-62
2022/03/18 05:08:43;;;;;;;23.70;15.43;;;1.00;75.50;;;;;;6272133;28;20193;-62
2022/03/18 05:11:44;;;;;;;22.83;15.87;;;1.00;75.60;;;;;;6297965;28;20197;-60
2022/03/18 05:14:45;;;;;;;23.50;14.90;;;0.90;75.70;;;;;;6280733;28;20203;-60
2022/03/18 05:17:50;;;;;;;17.83;13.43;;;0.90;75.70;;;;;;6323256;28;20192;-59
2022/03/18 05:20:52;;;;;;;19.77;14.53;;;1.00;75.50;;;;;;6293465;28;20228;-57
2022/03/18 05:23:52;;;;;;;20.57;14.93;;;1.00;75.80;;;;;;6275125;28;20483;-57
2022/03/18 05:26:57;;;;;;;20.43;14.27;;;1.00;75.90;;;;;;6289296;28;20240;-58
2022/03/18 05:29:58;;;;;;;19.87;13.73;;;1.00;75.60;;;;;;6267950;28;20185;-58
2022/03/18 05:32:59;;;;;;;21.07;13.67;;;1.00;75.60;;;;;;6280279;28;20195;-58
2022/03/18 05:36:00;;;;;;;19.73;13.90;;;1.00;75.40;;;;;;6287154;28;20193;-57
2022/03/18 05:39:01;;;;;;;19.73;13.23;;;1.10;75.40;;;;;;6297450;28;20207;-57
2022/03/18 05:42:02;;;;;;;22.83;14.40;;;1.10;75.20;;;;;;6279755;28;20217;-57
2022/03/18 05:45:03;;;;;;;25.30;15.20;;;1.20;75.00;;;;;;6296519;28;20207;-58
2022/03/18 05:48:06;;;;;;;20.57;14.80;;;1.30;75.10;;;;;;6287666;28;20186;-58
2022/03/18 05:51:08;;;;;;;22.40;15.43;;;1.30;75.00;;;;;;6278006;28;20207;-58
2022/03/18 05:54:09;;;;;;;24.93;15.33;;;1.30;75.20;;;;;;6279076;28;20224;-58
2022/03/18 05:57:11;;;;;;;19.80;14.00;;;1.30;75.10;;;;;;6296717;28;20192;-58
2022/03/18 06:00:14;;;;;;;26.00;13.97;;;1.40;75.10;;;;;;6291134;28;20200;-57
2022/03/18 06:03:16;;;;;;;20.40;14.23;;;1.40;74.90;;;;;;6260582;28;20224;-58
2022/03/18 06:06:16;;;;;;;22.07;15.23;;;1.40;74.70;;;;;;6283797;28;20192;-58
2022/03/18 06:12:37;;;;;;;23.10;16.17;;;1.50;75.10;;;;;;6299214;28;20217;-58
2022/03/18 06:15:38;;;;;;;21.53;15.53;;;1.50;74.80;;;;;;6280709;28;20200;-57
2022/03/18 06:18:39;;;;;;;23.53;16.00;;;1.70;74.30;;;;;;6293780;28;20192;-58
2022/03/18 06:21:41;;;;;;;21.73;15.00;;;1.80;74.10;;;;;;6310849;28;20212;-57
2022/03/18 06:24:44;;;;;;;19.13;14.33;;;1.90;74.00;;;;;;6285038;28;20189;-58
2022/03/18 06:27:45;;;;;;;22.33;15.33;;;1.90;74.40;;;;;;6267985;28;20235;-58
2022/03/18 06:30:46;;;;;;;17.10;14.03;;;2.00;74.70;;;;;;6263527;28;20189;-58
2022/03/18 06:33:47;;;;;;;20.03;15.27;;;2.10;74.30;;;;;;6284457;28;20193;-58
2022/03/18 06:36:50;;;;;;;21.17;15.17;;;2.30;74.20;;;;;;6277902;28;20203;-58
2022/03/18 06:39:51;;;;;;;21.83;15.97;;;2.40;73.90;;;;;;6298478;28;20190;-58
2022/03/18 06:42:51;;;;;;;22.20;14.57;;;2.60;73.70;;;;;;6280056;28;20278;-58
2022/03/18 06:45:52;;;;;;;22.17;17.10;;;2.60;74.30;;;;;;6281801;28;20374;-58
2022/03/18 06:48:53;;;;;;;25.30;15.50;;;2.80;74.10;;;;;;6281148;28;20188;-57
2022/03/18 06:51:54;;;;;;;19.07;13.93;;;2.90;73.80;;;;;;6280956;28;20198;-58
2022/03/18 06:54:55;;;;;;;21.27;15.63;;;3.10;73.30;;;;;;6297596;28;20199;-58
2022/03/18 06:57:56;;;;;;;25.87;16.43;;;3.30;72.00;;;;;;6307096;28;20201;-58
2022/03/18 07:00:57;;;;;;;25.27;17.47;;;3.30;72.20;;;;;;6305200;28;20196;-57
2022/03/18 07:03:58;;;;;;;26.50;17.27;;;3.60;70.80;;;;;;6298400;28;20195;-58
2022/03/18 07:06:58;;;;;;;20.40;15.90;;;3.60;70.30;;;;;;6275073;28;20239;-59
2022/03/18 07:09:59;;;;;;;26.13;17.80;;;3.80;69.60;;;;;;6273633;28;20185;-58
2022/03/18 07:13:00;;;;;;;24.53;17.03;;;3.90;69.00;;;;;;6273898;28;20198;-58
2022/03/18 07:19:20;;;;;;;23.73;16.80;;;4.30;67.70;;;;;;6288768;28;20240;-58
2022/03/18 07:22:21;;;;;;;29.07;16.93;;;4.30;67.20;;;;;;6270989;28;20229;-58
2022/03/18 07:25:22;;;;;;;20.07;15.10;;;4.30;67.60;;;;;;6294347;28;20240;-58
2022/03/18 07:28:23;;;;;;;29.57;16.57;;;4.40;67.80;;;;;;6280335;28;20239;-58
2022/03/18 07:31:24;;;;;;;28.40;17.57;;;4.60;67.60;;;;;;6279922;28;20193;-58
2022/03/18 07:34:25;;;;;;;21.17;16.47;;;4.80;67.60;;;;;;6283565;28;20239;-58
2022/03/18 07:37:27;;;;;;;22.67;15.53;;;4.80;67.40;;;;;;6279137;28;20189;-58
2022/03/18 07:40:28;;;;;;;25.43;17.33;;;5.10;66.60;;;;;;6280358;28;20235;-59
2022/03/18 07:43:30;;;;;;;25.47;17.17;;;5.10;66.80;;;;;;6313942;28;20228;-58
2022/03/18 07:46:30;;;;;;;23.73;15.90;;;5.20;66.70;;;;;;6279085;28;20253;-58
2022/03/18 07:49:32;;;;;;;26.73;16.20;;;5.30;66.10;;;;;;6279548;28;20189;-58
2022/03/18 07:52:32;;;;;;;25.67;17.83;;;5.60;65.60;;;;;;6263446;28;20204;-58
2022/03/18 07:55:35;;;;;;;22.70;16.67;;;5.90;64.20;;;;;;6279435;28;20267;-58
2022/03/18 07:58:36;;;;;;;22.40;16.47;;;6.30;63.30;;;;;;6313265;28;20192;-59
2022/03/18 08:01:39;;;;;;;22.37;15.87;;;6.30;63.30;;;;;;6279456;28;20216;-59
2022/03/18 08:04:40;;;;;;;25.10;18.20;;;6.60;63.00;;;;;;6278248;28;20231;-59
2022/03/18 08:07:42;;;;;;;22.53;18.13;;;6.70;62.00;;;;;;6272991;28;20194;-58
2022/03/18 08:10:43;;;;;;;23.43;17.33;;;7.00;61.50;;;;;;6289288;28;20194;-58
2022/03/18 08:13:47;;;;;;;22.17;16.23;;;6.90;62.00;;;;;;6283442;28;20268;-59
2022/03/18 08:16:48;;;;;;;19.73;15.40;;;6.80;62.10;;;;;;6287821;28;20198;-58
2022/03/18 08:19:51;;;;;;;24.27;17.23;;;7.10;61.30;;;;;;6314197;28;20704;-58
2022/03/18 08:22:53;;;;;;;22.93;16.87;;;7.30;60.30;;;;;;6295758;28;20217;-58
2022/03/18 08:25:54;;;;;;;25.30;15.80;;;7.10;61.70;;;;;;6279121;28;20236;-58
2022/03/18 08:28:55;;;;;;;24.10;17.47;;;7.40;60.50;;;;;;6294779;28;20235;-58
2022/03/18 08:31:56;;;;;;;23.97;16.77;;;7.50;59.90;;;;;;6271893;28;20200;-59
2022/03/18 08:34:57;;;;;;;25.10;17.40;;;7.60;60.00;;;;;;6261626;28;20205;-59
2022/03/18 08:38:00;;;;;;;22.00;17.27;;;7.80;59.10;;;;;;6261940;28;20213;-59
2022/03/18 08:41:00;;;;;;;22.37;17.47;;;7.80;59.30;;;;;;6277597;28;20224;-59
2022/03/18 08:44:01;;;;;;;21.50;16.67;;;8.00;59.10;;;;;;6279296;28;20196;-58
2022/03/18 08:47:02;;;;;;;30.30;19.17;;;8.10;59.70;;;;;;6278992;28;20192;-59
2022/03/18 08:50:05;;;;;;;24.00;18.63;;;8.30;58.10;;;;;;6277982;28;20197;-58
2022/03/18 08:53:09;;;;;;;23.37;16.33;;;8.10;59.40;;;;;;6278713;28;20196;-58
2022/03/18 08:56:10;;;;;;;23.80;18.10;;;8.30;59.00;;;;;;6295552;28;20194;-57
2022/03/18 08:59:11;;;;;;;23.27;16.87;;;8.30;59.30;;;;;;6278197;28;20258;-58
2022/03/18 09:02:12;;;;;;;23.03;17.40;;;8.70;58.30;;;;;;6278778;28;20209;-57
2022/03/18 09:05:13;;;;;;;26.90;18.83;;;8.90;57.60;;;;;;6278534;28;20192;-59
2022/03/18 09:08:14;;;;;;;25.50;19.20;;;8.80;59.90;;;;;;6295826;28;20188;-59
2022/03/18 09:11:15;;;;;;;22.13;18.33;;;9.00;59.10;;;;;;6278536;28;20181;-59
2022/03/18 09:14:16;;;;;;;30.43;20.93;;;9.20;58.80;;;;;;6278374;28;20283;-58
2022/03/18 09:17:17;;;;;;;25.97;18.57;;;9.30;58.30;;;;;;6278703;28;20598;-59
2022/03/18 09:20:18;;;;;;;26.60;19.33;;;9.50;58.20;;;;;;6279066;28;20193;-59
2022/03/18 09:23:18;;;;;;;29.00;20.23;;;9.80;57.40;;;;;;6278063;28;20222;-58
2022/03/18 09:26:19;;;;;;;25.37;19.67;;;9.90;57.60;;;;;;6276639;28;20232;-59
2022/03/18 09:29:24;;;;;;;24.90;19.73;;;9.90;57.60;;;;;;6277928;28;20201;-58
2022/03/18 09:32:27;;;;;;;27.80;20.80;;;10.10;56.50;;;;;;6278817;28;20186;-59
2022/03/18 09:35:28;;;;;;;24.20;19.20;;;10.20;56.60;;;;;;6310644;28;20185;-58
2022/03/18 09:38:29;;;;;;;24.90;19.83;;;10.60;55.60;;;;;;6293579;28;20220;-59
2022/03/18 09:41:30;;;;;;;28.07;21.33;;;10.90;53.90;;;;;;6278603;28;20219;-59
2022/03/18 09:44:33;;;;;;;26.60;19.07;;;10.80;55.10;;;;;;6277269;28;20189;-59
2022/03/18 09:47:34;;;;;;;24.43;18.73;;;10.80;54.50;;;;;;6293130;28;20186;-56
2022/03/18 09:50:37;;;;;;;25.83;20.27;;;10.90;54.60;;;;;;6279563;28;20192;-56
2022/03/18 09:53:37;;;;;;;27.07;20.63;;;11.20;54.50;;;;;;6282586;28;20219;-56
2022/03/18 09:56:41;;;;;;;23.97;19.33;;;11.30;53.70;;;;;;6281320;28;20201;-57
2022/03/18 09:59:42;;;;;;;29.13;21.97;;;10.90;54.40;;;;;;6298477;28;20284;-56
2022/03/18 10:02:43;;;;;;;23.53;19.23;;;11.20;53.70;;;;;;6278471;28;20265;-58
2022/03/18 10:05:59;;;;;;;27.27;21.63;;;11.40;53.40;;;;;;6275709;28;20204;-59
2022/03/18 10:09:02;;;;;;;28.23;21.20;;;11.40;52.70;;;;;;6287529;28;20190;-59
2022/03/18 10:12:03;;;;;;;27.10;20.13;;;11.30;53.30;;;;;;6300120;28;20181;-58
2022/03/18 10:15:16;;;;;;;26.30;20.60;;;11.50;53.10;;;;;;6282472;28;20217;-58
2022/03/18 10:18:17;;;;;;;27.63;19.87;;;11.70;52.40;;;;;;6306610;28;20191;-59
2022/03/18 10:21:18;;;;;;;23.80;18.77;;;11.90;51.60;;;;;;6274372;28;20285;-58
2022/03/18 10:24:30;;;;;;;25.57;20.77;;;11.90;51.50;;;;;;6290426;28;20363;-59
2022/03/18 10:27:32;;;;;;;26.93;19.13;;;12.10;51.20;;;;;;6274144;28;20279;-58
2022/03/18 10:30:34;;;;;;;22.13;19.73;;;12.40;49.60;;;;;;6293442;28;20266;-58
2022/03/18 10:37:21;;;;;;;28.70;21.13;;;12.30;49.90;;;;;;6290271;28;20228;-58
2022/03/18 10:40:36;;;;;;;25.20;19.73;;;12.30;49.30;;;;;;6289350;28;20190;-59
2022/03/18 10:43:53;;;;;;;29.17;21.80;;;12.20;49.80;;;;;;6272724;28;20313;-59
2022/03/18 10:46:57;;;;;;;28.10;20.77;;;11.90;50.60;;;;;;6287153;28;20231;-58
2022/03/18 10:50:09;;;;;;;27.63;20.90;;;11.80;51.10;;;;;;6285529;28;20192;-59
2022/03/18 10:53:11;;;;;;;26.97;21.00;;;12.00;50.70;;;;;;6304453;28;20227;-59
2022/03/18 10:56:12;;;;;;;28.17;21.10;;;12.20;49.90;;;;;;6284609;28;20213;-54
2022/03/18 10:59:15;;;;;;;22.20;18.30;;;12.10;50.90;;;;;;6276280;28;20193;-56
2022/03/18 11:02:17;;;;;;;25.70;19.77;;;12.30;50.40;;;;;;6258781;28;20218;-56
2022/03/18 11:05:20;;;;;;;25.00;18.90;;;12.30;49.80;;;;;;6242917;28;20194;-59
2022/03/18 11:08:22;;;;;;;23.87;17.67;;;12.40;48.50;;;;;;6290288;28;20196;-57
2022/03/18 11:11:27;;;;;;;24.03;18.03;;;12.50;48.00;;;;;;6260305;28;20198;-57
2022/03/18 11:14:28;;;;;;;21.37;17.93;;;12.50;48.30;;;;;;6260072;28;20266;-59
2022/03/18 11:17:30;;;;;;;25.93;18.80;;;12.60;47.90;;;;;;6262834;28;20233;-59
2022/03/18 11:20:33;;;;;;;25.57;19.43;;;12.50;47.90;;;;;;6309132;28;20263;-62
2022/03/18 11:23:37;;;;;;;25.50;18.97;;;12.50;48.00;;;;;;6308823;28;20224;-62
2022/03/18 11:26:48;;;;;;;23.97;18.83;;;12.20;49.20;;;;;;6291840;28;20233;-59
2022/03/18 11:30:18;;;;;;;22.57;17.83;;;12.10;49.80;;;;;;6283587;28;20197;-60
2022/03/18 11:33:21;;;;;;;22.37;17.60;;;12.50;49.50;;;;;;6274630;28;20192;-60
2022/03/18 11:36:22;;;;;;;22.23;18.00;;;12.90;46.70;;;;;;6267034;28;20190;-59
2022/03/18 11:39:23;;;;;;;23.20;17.03;;;12.90;46.60;;;;;;6283932;28;20270;-59
2022/03/18 11:42:23;;;;;;;20.73;17.53;;;12.90;47.50;;;;;;6300680;28;20229;-59
2022/03/18 11:45:37;;;;;;;21.27;16.90;;;12.80;46.80;;;;;;6291525;28;20195;-60
2022/03/18 11:49:08;;;;;;;18.97;16.60;;;12.70;47.80;;;;;;6325509;28;20243;-60
2022/03/18 11:52:09;;;;;;;22.07;16.77;;;13.10;46.80;;;;;;6279842;28;20269;-59
2022/03/18 11:55:11;;;;;;;20.93;17.03;;;13.70;44.70;;;;;;6283543;28;20193;-59
2022/03/18 11:58:30;;;;;;;21.27;17.00;;;13.80;44.40;;;;;;6292937;28;20198;-60
2022/03/18 12:01:41;;;;;;;22.13;17.57;;;13.80;43.30;;;;;;6299256;28;20205;-59
2022/03/18 12:04:52;;;;;;;20.87;16.17;;;13.90;43.70;;;;;;6289829;28;20199;-59
2022/03/18 12:07:54;;;;;;;20.30;16.40;;;14.30;42.90;;;;;;6313712;28;20194;-60
2022/03/18 12:11:00;;;;;;;21.13;16.67;;;14.40;42.00;;;;;;6269649;28;20189;-60
2022/03/18 12:14:01;;;;;;;19.53;15.77;;;13.90;42.70;;;;;;6299388;28;20190;-59
2022/03/18 12:17:02;;;;;;;22.97;16.87;;;13.80;43.40;;;;;;6299534;28;20303;-60
2022/03/18 12:20:06;;;;;;;23.80;17.93;;;14.00;43.70;;;;;;6283088;28;20189;-60
2022/03/18 12:23:08;;;;;;;22.67;17.20;;;13.80;43.30;;;;;;6299474;28;20221;-60
2022/03/18 12:26:09;;;;;;;21.80;17.50;;;13.80;42.70;;;;;;6290762;28;20244;-59
2022/03/18 12:29:23;;;;;;;22.20;17.50;;;13.40;43.20;;;;;;6299563;28;20185;-60
2022/03/18 12:32:24;;;;;;;22.47;16.87;;;13.30;43.80;;;;;;6315988;28;20177;-59
2022/03/18 12:35:27;;;;;;;17.90;14.83;;;12.60;45.90;;;;;;6253256;28;20200;-59
2022/03/18 12:38:34;;;;;;;19.13;15.30;;;12.50;44.80;;;;;;6290875;28;20197;-60
2022/03/18 12:41:35;;;;;;;18.73;15.30;;;12.50;44.00;;;;;;6274133;28;20240;-59
2022/03/18 12:44:36;;;;;;;16.93;14.70;;;12.20;44.40;;;;;;6276862;28;20224;-60
2022/03/18 12:47:38;;;;;;;19.70;14.57;;;12.20;44.40;;;;;;6298931;28;20239;-60
2022/03/18 12:50:47;;;;;;;19.50;15.63;;;12.30;44.60;;;;;;6298942;28;20593;-59
2022/03/18 12:53:48;;;;;;;18.13;14.60;;;12.30;44.00;;;;;;6298302;28;20197;-59
2022/03/18 12:57:11;;;;;;;16.80;12.80;;;12.20;45.00;;;;;;6282529;28;20185;-59
2022/03/18 13:00:17;;;;;;;18.97;14.60;;;12.20;45.40;;;;;;6297692;28;20196;-59
2022/03/18 13:03:20;;;;;;;21.13;15.40;;;12.50;44.10;;;;;;6292220;28;20217;-59
2022/03/18 13:06:24;;;;;;;15.63;13.93;;;12.50;44.30;;;;;;6257582;28;20174;-59
2022/03/18 13:09:25;;;;;;;15.83;13.10;;;12.70;43.60;;;;;;6302063;28;20213;-59
2022/03/18 13:12:31;;;;;;;19.30;14.17;;;13.20;42.60;;;;;;6288542;28;20189;-60
2022/03/18 13:15:32;;;;;;;17.40;14.77;;;13.50;41.50;;;;;;6310181;28;20197;-60
2022/03/18 13:18:37;;;;;;;15.77;12.77;;;13.80;40.70;;;;;;6290930;28;20195;-60
2022/03/18 13:21:39;;;;;;;16.13;13.23;;;14.10;41.00;;;;;;6279128;28;20213;-60
2022/03/18 13:24:40;;;;;;;15.00;12.70;;;15.10;39.00;;;;;;6293506;28;20277;-60
2022/03/18 13:27:41;;;;;;;15.43;12.47;;;16.10;36.50;;;;;;6296017;28;20238;-59
2022/03/18 13:34:05;;;;;;;18.63;14.43;;;17.50;33.00;;;;;;6304944;28;20191;-58
2022/03/18 13:37:11;;;;;;;16.27;14.20;;;18.10;32.60;;;;;;6285666;28;20222;-58
2022/03/18 13:40:15;;;;;;;14.33;12.73;;;17.90;31.80;;;;;;6307333;28;20323;-59
2022/03/18 13:43:25;;;;;;;17.13;14.23;;;17.70;33.00;;;;;;6277182;28;20218;-58
2022/03/18 13:46:30;;;;;;;15.73;12.67;;;17.70;32.80;;;;;;6307610;28;20268;-58
2022/03/18 13:49:32;;;;;;;16.40;14.63;;;17.40;33.20;;;;;;6288224;28;20190;-60
2022/03/18 13:52:35;;;;;;;15.97;14.27;;;18.00;32.00;;;;;;6293967;28;20191;-58
2022/03/18 13:55:36;;;;;;;15.33;13.73;;;18.20;32.50;;;;;;6282851;28;20190;-60
2022/03/18 13:58:36;;;;;;;15.43;12.80;;;18.30;32.20;;;;;;6280767;28;20244;-59
2022/03/18 14:01:38;;;;;;;15.13;13.53;;;18.40;31.70;;;;;;6280778;28;20216;-59
2022/03/18 14:04:46;;;;;;;13.30;11.90;;;18.50;30.70;;;;;;6293889;28;20268;-59
2022/03/18 14:07:49;;;;;;;15.13;13.57;;;18.80;30.00;;;;;;6292604;28;20332;-59
2022/03/18 14:10:50;;;;;;;12.87;11.57;;;19.00;29.30;;;;;;6286110;28;20193;-59
2022/03/18 14:13:51;;;;;;;15.53;13.63;;;19.50;29.10;;;;;;6255547;28;20193;-59
2022/03/18 14:17:14;;;;;;;18.57;14.53;;;19.80;28.00;;;;;;6270338;28;20186;-61
2022/03/18 14:20:15;;;;;;;16.73;14.37;;;19.80;28.20;;;;;;6303413;28;20320;-54
2022/03/18 14:23:28;;;;;;;18.60;14.73;;;19.30;29.50;;;;;;6287188;28;20228;-55
2022/03/18 14:26:29;;;;;;;17.23;15.43;;;18.50;31.20;;;;;;6296568;28;20235;-60
2022/03/18 14:29:31;;;;;;;17.03;14.33;;;18.50;31.00;;;;;;6247781;28;20193;-59
2022/03/18 14:32:32;;;;;;;18.03;14.83;;;18.10;32.10;;;;;;6247654;28;20198;-59
2022/03/18 14:35:33;;;;;;;15.83;14.13;;;17.70;33.50;;;;;;6210506;28;20203;-61
2022/03/18 14:38:34;;;;;;;26.07;14.80;;;17.20;33.40;;;;;;6256189;28;20204;-62
2022/03/18 14:41:34;;;;;;;17.17;14.27;;;16.90;33.80;;;;;;6254540;28;20199;-62
2022/03/18 14:44:35;;;;;;;15.90;14.20;;;16.80;33.10;;;;;;6268863;28;20182;-62
2022/03/18 14:47:36;;;;;;;16.20;13.93;;;16.50;33.30;;;;;;6250934;28;20196;-58
2022/03/18 14:50:40;;;;;;;16.57;13.83;;;16.50;33.70;;;;;;6268900;28;20198;-60
2022/03/18 14:53:41;;;;;;;15.67;13.60;;;16.20;33.80;;;;;;6268834;28;20254;-62
2022/03/18 14:56:42;;;;;;;17.40;14.20;;;15.90;34.50;;;;;;6236661;28;20248;-62
2022/03/18 14:59:43;;;;;;;19.53;13.77;;;15.40;35.60;;;;;;6227698;28;20365;-62
2022/03/18 15:02:44;;;;;;;17.70;14.87;;;15.10;37.40;;;;;;6227698;28;20258;-62
2022/03/18 15:05:44;;;;;;;18.07;15.57;;;14.70;38.40;;;;;;6240921;28;20190;-62
2022/03/18 15:08:46;;;;;;;17.13;15.23;;;14.40;38.90;;;;;;6264574;28;20218;-62
2022/03/18 15:11:47;;;;;;;18.73;15.30;;;14.20;39.20;;;;;;6250695;28;20226;-61
2022/03/18 15:14:48;;;;;;;17.73;14.83;;;14.00;39.40;;;;;;6250818;28;20202;-62
2022/03/18 15:17:48;;;;;;;19.60;14.50;;;13.80;39.90;;;;;;6250457;28;20186;-63
2022/03/18 15:20:53;;;;;;;16.07;13.77;;;14.00;39.70;;;;;;6249338;28;20187;-62
2022/03/18 15:23:54;;;;;;;17.80;13.83;;;13.80;40.30;;;;;;6249072;28;20286;-62
2022/03/18 15:26:54;;;;;;;20.30;16.93;;;13.50;41.20;;;;;;6254724;28;20243;-63
2022/03/18 15:29:56;;;;;;;16.77;13.67;;;13.40;41.90;;;;;;6257992;28;20239;-59
2022/03/18 15:32:57;;;;;;;17.93;14.37;;;12.90;42.40;;;;;;6249153;28;20197;-60
2022/03/18 15:35:58;;;;;;;17.83;15.13;;;12.80;43.40;;;;;;6214092;28;20731;-59
2022/03/18 15:38:59;;;;;;;26.57;16.87;;;12.70;43.50;;;;;;6226836;28;20183;-59
2022/03/18 15:42:01;;;;;;;15.87;13.67;;;12.50;43.80;;;;;;6210468;28;20217;-59
2022/03/18 15:45:02;;;;;;;19.80;14.83;;;12.10;44.40;;;;;;6226982;28;20250;-59
2022/03/18 15:48:05;;;;;;;17.47;14.73;;;12.20;45.00;;;;;;6234283;28;20194;-59
2022/03/18 15:51:06;;;;;;;21.00;14.73;;;12.00;45.60;;;;;;6232646;28;20221;-60
2022/03/18 15:54:09;;;;;;;19.73;14.17;;;11.80;45.60;;;;;;6250494;28;20191;-59
2022/03/18 15:57:13;;;;;;;19.13;15.00;;;11.70;45.90;;;;;;6272313;28;20235;-60
2022/03/18 16:00:17;;;;;;;19.47;14.40;;;11.60;46.70;;;;;;6216420;28;20195;-59